Time;durP1;ratioP1;P1;durP2;ratioP2;P2;SDS_P1;SDS_P2;PMS_P1;PMS_P2;Temp;Humidity;BMP_temperature;BMP_pressure;BME280_temperature;BME280_humidity;BME280_pressure;Samples;Min_cycle;Max_cycle;Signal;HPM_P1;HPM_P2
2023/06/08 00:01:15;;;;;;;10.20;7.90;;;;;;;17.33;59.08;100251.77;103630;1257;97861;-86
2023/06/08 00:03:46;;;;;;;11.00;8.00;;;;;;;17.31;59.13;100249.08;103552;1254;138842;-86
2023/06/08 00:06:15;;;;;;;14.50;8.00;;;;;;;17.29;59.23;100249.73;103653;1255;96705;-86
2023/06/08 00:08:43;;;;;;;10.00;7.90;;;;;;;17.27;59.34;100256.16;103488;1254;137914;-85
2023/06/08 00:11:13;;;;;;;12.70;8.40;;;;;;;17.27;59.42;100259.38;103643;1254;107817;-86
2023/06/08 00:13:40;;;;;;;11.70;7.30;;;;;;;17.26;59.36;100261.02;103693;1254;97810;-87
2023/06/08 00:16:08;;;;;;;12.70;7.90;;;;;;;17.26;59.44;100268.22;103686;1254;138582;-86
2023/06/08 00:18:36;;;;;;;14.20;8.60;;;;;;;17.27;59.66;100269.52;103626;1257;97795;-86
2023/06/08 00:21:04;;;;;;;12.90;8.80;;;;;;;17.30;59.88;100272.48;103648;1254;137524;-85
2023/06/08 00:23:31;;;;;;;17.10;8.30;;;;;;;17.31;59.68;100277.19;103479;1256;106571;-84
2023/06/08 00:26:00;;;;;;;14.30;8.90;;;;;;;17.31;59.86;100272.98;103588;1254;96914;-84
2023/06/08 00:28:28;;;;;;;16.20;10.10;;;;;;;17.32;60.12;100270.82;103473;1253;137360;-84
2023/06/08 00:30:55;;;;;;;12.90;9.70;;;;;;;17.30;60.25;100272.50;103669;1254;95729;-85
2023/06/08 00:33:23;;;;;;;13.20;8.90;;;;;;;17.27;60.21;100269.55;103303;1254;138943;-83
2023/06/08 00:35:50;;;;;;;11.50;9.10;;;;;;;17.23;60.33;100269.58;103478;1260;108089;-85
2023/06/08 00:38:17;;;;;;;12.90;8.90;;;;;;;17.19;60.56;100271.75;103435;1254;98278;-85
2023/06/08 00:40:45;;;;;;;11.20;9.20;;;;;;;17.14;60.72;100268.56;103467;1257;137423;-86
2023/06/08 00:43:12;;;;;;;12.60;9.40;;;;;;;17.09;60.76;100265.34;103469;1253;97084;-83
2023/06/08 00:45:39;;;;;;;11.70;10.00;;;;;;;17.05;61.08;100263.64;103096;1253;215637;-84
2023/06/08 00:48:09;;;;;;;13.00;9.20;;;;;;;17.00;61.23;100261.83;103442;1254;108659;-86
2023/06/08 00:50:36;;;;;;;13.10;9.40;;;;;;;16.95;61.29;100259.14;103446;1254;98341;-83
2023/06/08 00:53:04;;;;;;;12.50;9.30;;;;;;;16.88;61.56;100256.18;103404;1257;106325;-84
2023/06/08 00:55:33;;;;;;;13.90;8.90;;;;;;;16.82;61.87;100256.71;103391;1254;97924;-83
2023/06/08 00:58:01;;;;;;;13.60;9.40;;;;;;;16.74;61.93;100253.17;103302;1253;137340;-83
2023/06/08 01:00:29;;;;;;;12.80;8.60;;;;;;;16.67;62.12;100256.86;103349;1257;106634;-84
2023/06/08 01:02:58;;;;;;;14.00;9.50;;;;;;;16.61;62.06;100256.50;103321;1254;138403;-84
2023/06/08 01:05:26;;;;;;;15.30;9.10;;;;;;;16.55;62.27;100250.52;104810;1253;107599;-85
2023/06/08 01:08:13;;;;;;;11.80;9.10;;;;;;;16.52;62.43;100252.41;104839;1253;95899;-85
2023/06/08 01:10:47;;;;;;;14.60;8.60;;;;;;;16.49;62.65;100254.37;104728;1253;139187;-84
2023/06/08 01:13:18;;;;;;;14.70;8.80;;;;;;;16.45;62.78;100253.00;104772;1257;107782;-84
2023/06/08 01:15:52;;;;;;;15.20;8.80;;;;;;;16.41;63.02;100252.36;104693;1253;137491;-85
2023/06/08 01:18:23;;;;;;;12.70;8.40;;;;;;;16.38;63.03;100256.23;104814;1253;107004;-87
2023/06/08 01:21:06;;;;;;;13.40;8.50;;;;;;;16.35;63.26;100257.46;104671;1255;138948;-86
2023/06/08 01:23:44;;;;;;;10.10;8.20;;;;;;;16.31;63.33;100257.08;104735;1253;111645;-86
2023/06/08 01:26:15;;;;;;;13.20;8.50;;;;;;;16.28;63.42;100254.45;104708;1254;106560;-87
2023/06/08 01:28:43;;;;;;;16.00;8.40;;;;;;;16.25;63.58;100255.36;104591;1254;137835;-85
2023/06/08 01:31:10;;;;;;;12.80;8.60;;;;;;;16.23;63.62;100254.05;104638;1259;106406;-86
2023/06/08 01:33:37;;;;;;;12.00;8.20;;;;;;;16.20;63.65;100257.02;104506;1253;137715;-87
2023/06/08 01:36:12;;;;;;;13.40;8.80;;;;;;;16.18;63.86;100255.77;104767;1254;111249;-87
2023/06/08 01:38:49;;;;;;;11.90;8.50;;;;;;;16.14;64.05;100262.77;104420;1253;139410;-87
2023/06/08 01:41:23;;;;;;;9.90;8.20;;;;;;;16.11;64.16;100259.83;104758;1253;95703;-86
2023/06/08 01:43:53;;;;;;;16.30;8.60;;;;;;;16.06;64.27;100263.75;104726;1253;106459;-87
2023/06/08 01:46:22;;;;;;;12.80;8.20;;;;;;;16.02;64.42;100265.73;104579;1253;137542;-86
2023/06/08 01:48:52;;;;;;;16.20;9.50;;;;;;;15.98;64.52;100265.44;104730;1253;110255;-86
2023/06/08 01:51:20;;;;;;;11.60;9.30;;;;;;;15.93;64.60;100266.22;104582;1254;139295;-86
2023/06/08 01:53:47;;;;;;;15.50;9.40;;;;;;;15.88;64.77;100263.70;104864;1253;96135;-86
2023/06/08 01:56:16;;;;;;;15.70;8.40;;;;;;;15.83;64.91;100264.66;104779;1253;107599;-86
2023/06/08 01:58:44;;;;;;;11.00;8.60;;;;;;;15.81;65.14;100263.77;104702;1253;139288;-84
2023/06/08 02:01:11;;;;;;;16.50;9.80;;;;;;;15.78;65.16;100265.80;104793;1254;110873;-86
2023/06/08 02:03:38;;;;;;;14.10;9.30;;;;;;;15.76;65.23;100267.33;104387;1256;138208;-85
2023/06/08 02:06:06;;;;;;;12.70;9.40;;;;;;;15.74;65.47;100265.49;103394;1253;97670;-84
2023/06/08 02:08:33;;;;;;;12.40;9.10;;;;;;;15.72;65.46;100263.69;103497;1254;106800;-85
2023/06/08 02:11:01;;;;;;;13.50;9.40;;;;;;;15.69;65.67;100264.55;103547;1257;97810;-85
2023/06/08 02:13:28;;;;;;;12.20;9.40;;;;;;;15.65;65.77;100262.65;103415;1253;109898;-84
2023/06/08 02:15:57;;;;;;;12.80;9.50;;;;;;;15.62;65.89;100264.22;103239;1257;139975;-85
2023/06/08 02:18:26;;;;;;;15.60;9.60;;;;;;;15.58;66.11;100266.14;103509;1257;97812;-85
2023/06/08 02:20:54;;;;;;;16.30;9.50;;;;;;;15.55;66.53;100271.05;103201;1254;137552;-85
2023/06/08 02:23:21;;;;;;;12.20;9.20;;;;;;;15.51;66.56;100270.02;103397;1253;97694;-85
2023/06/08 02:25:51;;;;;;;14.60;9.90;;;;;;;15.46;66.83;100270.48;103431;1253;112515;-86
2023/06/08 02:28:20;;;;;;;16.50;10.40;;;;;;;15.40;67.14;100272.12;103263;1253;137603;-87
2023/06/08 02:30:50;;;;;;;15.30;9.90;;;;;;;15.35;67.19;100269.27;103870;1253;97883;-85
2023/06/08 02:33:17;;;;;;;14.90;10.30;;;;;;;15.30;67.23;100268.48;103225;1257;137755;-85
2023/06/08 02:35:46;;;;;;;14.30;9.90;;;;;;;15.27;67.45;100266.55;103269;1253;97938;-85
2023/06/08 02:38:15;;;;;;;15.60;10.80;;;;;;;15.25;67.78;100269.61;103345;1253;111291;-86
2023/06/08 02:40:42;;;;;;;16.80;11.00;;;;;;;15.21;68.00;100269.43;103146;1256;138852;-85
2023/06/08 02:43:09;;;;;;;14.30;10.40;;;;;;;15.18;68.12;100269.27;103251;1259;99487;-86
2023/06/08 02:45:39;;;;;;;15.30;10.80;;;;;;;15.14;68.29;100265.45;103254;1254;138633;-86
2023/06/08 02:48:07;;;;;;;15.10;10.40;;;;;;;15.11;68.40;100267.31;103189;1259;97847;-86
2023/06/08 02:50:35;;;;;;;11.50;9.80;;;;;;;15.10;68.49;100266.16;103290;1259;109628;-86
2023/06/08 02:53:03;;;;;;;15.40;10.10;;;;;;;15.08;68.38;100264.70;103469;1253;107706;-85
2023/06/08 02:55:34;;;;;;;12.90;10.10;;;;;;;15.07;68.45;100262.95;103312;1260;97792;-85
2023/06/08 02:58:05;;;;;;;14.60;10.30;;;;;;;15.07;68.56;100258.23;103228;1254;139577;-85
2023/06/08 03:00:34;;;;;;;14.60;9.90;;;;;;;15.07;68.54;100262.42;103156;1260;97888;-86
2023/06/08 03:03:22;;;;;;;13.40;9.40;;;;;;;15.07;68.50;100266.97;103241;1258;138898;-85
2023/06/08 03:05:58;;;;;;;12.30;9.70;;;;;;;15.08;68.60;100270.27;103230;1253;108660;-83
2023/06/08 03:08:28;;;;;;;11.70;9.00;;;;;;;15.08;68.40;100269.91;103337;1257;97686;-85
2023/06/08 03:10:55;;;;;;;14.80;9.50;;;;;;;15.10;68.59;100274.71;103251;1257;138496;-84
2023/06/08 03:13:23;;;;;;;13.30;9.20;;;;;;;15.11;68.39;100273.45;103250;1259;97739;-85
2023/06/08 03:15:52;;;;;;;14.40;9.40;;;;;;;15.12;68.69;100282.16;103178;1254;138649;-83
2023/06/08 03:18:20;;;;;;;12.10;9.10;;;;;;;15.12;68.54;100281.12;104566;1253;106925;-84
2023/06/08 03:20:51;;;;;;;15.20;9.40;;;;;;;15.14;68.70;100282.08;103221;1253;140049;-85
2023/06/08 03:23:19;;;;;;;12.70;9.00;;;;;;;15.16;68.58;100280.25;103226;1254;107271;-86
2023/06/08 03:25:49;;;;;;;13.70;9.00;;;;;;;15.16;68.52;100279.01;103204;1259;97805;-86
2023/06/08 03:28:16;;;;;;;14.40;9.50;;;;;;;15.17;68.61;100282.45;103164;1253;139355;-85
2023/06/08 03:30:45;;;;;;;11.90;9.40;;;;;;;15.18;68.69;100281.36;103135;1254;109029;-85
2023/06/08 03:33:15;;;;;;;12.80;9.10;;;;;;;15.18;68.69;100286.78;103176;1253;138775;-84
2023/06/08 03:35:53;;;;;;;14.10;9.30;;;;;;;15.18;68.85;100285.88;103582;1253;107527;-83
2023/06/08 03:38:41;;;;;;;11.70;9.70;;;;;;;15.19;68.93;100287.96;103088;1253;138942;-85
2023/06/08 03:41:13;;;;;;;15.80;9.60;;;;;;;15.20;69.10;100289.33;103124;1259;110463;-84
2023/06/08 03:43:41;;;;;;;12.20;9.40;;;;;;;15.19;68.99;100285.66;103234;1257;107538;-83
2023/06/08 03:46:09;;;;;;;13.30;9.80;;;;;;;15.21;68.88;100285.58;103153;1257;138606;-82
2023/06/08 03:48:37;;;;;;;11.30;9.40;;;;;;;15.25;68.82;100283.61;103187;1253;107674;-81
2023/06/08 03:51:05;;;;;;;12.10;9.90;;;;;;;15.30;68.87;100289.14;103013;1253;139806;-82
2023/06/08 03:53:33;;;;;;;16.80;9.70;;;;;;;15.35;68.76;100287.69;103155;1253;111308;-86
2023/06/08 03:56:00;;;;;;;12.30;9.40;;;;;;;15.40;68.75;100292.45;103276;1253;107955;-83
2023/06/08 03:58:30;;;;;;;13.40;9.40;;;;;;;15.44;68.75;100291.39;103091;1259;138826;-84
2023/06/08 04:00:57;;;;;;;14.80;10.30;;;;;;;15.46;68.75;100289.73;103409;1256;106061;-84
2023/06/08 04:03:25;;;;;;;11.00;9.10;;;;;;;15.48;68.61;100289.09;103301;1253;137894;-83
2023/06/08 04:05:53;;;;;;;10.20;8.70;;;;;;;15.51;68.49;100287.91;103427;1253;109466;-85
2023/06/08 04:08:21;;;;;;;14.30;8.60;;;;;;;15.55;68.30;100283.67;103487;1253;106632;-83
2023/06/08 04:10:49;;;;;;;13.00;8.50;;;;;;;15.60;68.07;100286.03;103241;1259;137649;-82
2023/06/08 04:13:17;;;;;;;10.30;8.20;;;;;;;15.65;68.10;100289.13;103319;1255;107812;-82
2023/06/08 04:15:45;;;;;;;14.10;8.90;;;;;;;15.70;67.91;100288.29;103172;1253;138623;-84
2023/06/08 04:18:15;;;;;;;11.50;8.60;;;;;;;15.78;67.88;100288.41;103271;1257;112041;-84
2023/06/08 04:20:43;;;;;;;15.00;9.20;;;;;;;15.85;67.73;100283.83;103120;1254;138864;-83
2023/06/08 04:23:12;;;;;;;13.00;8.70;;;;;;;15.94;67.52;100291.25;103278;1253;97820;-84
2023/06/08 04:25:40;;;;;;;14.70;8.30;;;;;;;16.01;67.40;100294.55;103305;1253;107685;-84
2023/06/08 04:28:08;;;;;;;10.10;7.40;;;;;;;16.09;67.13;100295.55;103104;1259;139438;-84
2023/06/08 04:30:35;;;;;;;9.90;7.60;;;;;;;16.16;66.81;100295.83;103431;1253;110732;-84
2023/06/08 04:33:03;;;;;;;11.70;7.80;;;;;;;16.23;66.61;100296.84;103170;1259;138919;-83
2023/06/08 04:35:32;;;;;;;9.30;7.30;;;;;;;16.28;66.31;100299.23;103225;1253;97797;-83
2023/06/08 04:38:01;;;;;;;10.50;6.90;;;;;;;16.30;66.08;100301.52;103252;1253;108258;-84
2023/06/08 04:40:33;;;;;;;9.70;6.20;;;;;;;16.32;65.80;100304.45;103129;1257;138988;-84
2023/06/08 04:43:02;;;;;;;9.00;6.40;;;;;;;16.31;65.69;100301.14;104724;1253;111730;-84
2023/06/08 04:45:33;;;;;;;9.80;7.30;;;;;;;16.32;65.63;100302.13;103981;1258;138816;-84
2023/06/08 04:48:00;;;;;;;8.80;7.10;;;;;;;16.38;65.61;100302.89;103256;1257;97874;-84
2023/06/08 04:50:29;;;;;;;9.90;7.70;;;;;;;16.44;65.64;100299.76;103122;1256;108457;-85
2023/06/08 04:52:57;;;;;;;11.40;7.00;;;;;;;16.48;65.48;100298.82;103010;1260;138442;-86
2023/06/08 04:55:24;;;;;;;10.20;7.10;;;;;;;16.53;65.34;100302.07;103272;1258;110825;-86
2023/06/08 04:57:51;;;;;;;9.30;7.20;;;;;;;16.58;65.23;100299.46;103050;1253;138588;-85
2023/06/08 05:00:20;;;;;;;9.40;7.20;;;;;;;16.67;65.06;100298.46;103290;1257;98323;-85
2023/06/08 05:02:47;;;;;;;9.80;7.00;;;;;;;16.76;64.93;100299.89;104649;1252;138712;-86
2023/06/08 05:05:15;;;;;;;10.00;6.90;;;;;;;16.88;64.82;100302.01;103565;1254;97667;-84
2023/06/08 05:07:43;;;;;;;8.70;7.10;;;;;;;16.95;64.49;100302.34;103406;1252;110931;-83
2023/06/08 05:10:11;;;;;;;8.10;6.10;;;;;;;17.10;64.47;100304.30;103195;1256;139256;-83
2023/06/08 05:12:39;;;;;;;9.00;6.70;;;;;;;17.28;63.94;100304.10;103232;1253;98009;-83
2023/06/08 05:15:08;;;;;;;10.30;6.80;;;;;;;17.40;63.23;100310.04;103228;1256;138590;-85
2023/06/08 05:17:35;;;;;;;10.50;6.30;;;;;;;17.53;63.09;100307.00;103654;1256;97676;-85
2023/06/08 05:20:03;;;;;;;9.90;6.20;;;;;;;17.71;62.63;100311.74;103413;1253;111625;-85
2023/06/08 05:22:31;;;;;;;11.70;7.50;;;;;;;17.88;62.28;100306.11;103322;1256;138471;-87
2023/06/08 05:24:58;;;;;;;8.00;6.50;;;;;;;18.09;62.07;100306.72;103377;1256;97888;-85
2023/06/08 05:27:25;;;;;;;7.80;6.20;;;;;;;18.36;61.66;100304.36;103280;1254;138241;-85
2023/06/08 05:29:53;;;;;;;8.60;6.30;;;;;;;18.59;60.89;100300.58;103377;1252;97887;-85
2023/06/08 05:32:21;;;;;;;8.60;6.10;;;;;;;18.72;60.19;100300.81;103404;1254;111592;-85
2023/06/08 05:34:50;;;;;;;7.00;6.10;;;;;;;18.82;59.99;100304.05;103329;1252;140288;-85
2023/06/08 05:37:17;;;;;;;9.10;6.90;;;;;;;19.05;59.92;100302.35;103367;1253;98294;-84
2023/06/08 05:39:45;;;;;;;8.50;6.90;;;;;;;19.23;59.30;100303.23;103270;1254;138038;-85
2023/06/08 05:42:12;;;;;;;10.70;7.00;;;;;;;19.39;58.90;100295.14;103369;1256;97783;-86
2023/06/08 05:44:39;;;;;;;9.30;6.80;;;;;;;19.57;58.43;100291.60;103430;1254;111929;-87
2023/06/08 05:47:07;;;;;;;14.60;6.60;;;;;;;19.81;58.23;100296.11;103360;1253;108462;-85
2023/06/08 05:49:35;;;;;;;8.60;6.00;;;;;;;20.11;57.67;100297.88;103418;1253;97809;-86
2023/06/08 05:52:03;;;;;;;7.90;6.00;;;;;;;20.52;57.20;100296.71;103367;1253;138733;-85
2023/06/08 05:54:30;;;;;;;8.00;5.90;;;;;;;21.25;56.58;100293.61;103396;1253;97868;-85
2023/06/08 05:56:58;;;;;;;8.00;6.00;;;;;;;22.61;55.01;100288.56;103353;1253;137800;-86
2023/06/08 05:59:26;;;;;;;8.30;5.80;;;;;;;24.26;52.17;100283.00;103438;1255;107872;-85
2023/06/08 06:01:54;;;;;;;7.30;5.60;;;;;;;25.83;48.98;100282.60;103391;1253;97766;-85
2023/06/08 06:04:21;;;;;;;7.50;5.60;;;;;;;27.20;46.13;100278.08;103278;1253;137718;-87
2023/06/08 06:07:03;;;;;;;7.70;5.70;;;;;;;28.55;44.23;100274.01;103724;1254;97758;-86
2023/06/08 06:09:30;;;;;;;6.80;4.80;;;;;;;29.80;42.35;100272.10;104235;1253;137754;-85
2023/06/08 06:11:57;;;;;;;7.40;5.00;;;;;;;31.11;40.89;100270.76;104819;1254;108686;-84
2023/06/08 06:14:24;;;;;;;8.80;4.70;;;;;;;32.36;39.07;100262.04;104823;1253;95673;-86
2023/06/08 06:16:52;;;;;;;8.50;5.30;;;;;;;33.37;36.20;100261.57;103376;1253;137737;-86
2023/06/08 06:19:36;;;;;;;6.30;4.40;;;;;;;34.09;33.94;100261.59;103466;1257;97812;-85
2023/06/08 06:22:05;;;;;;;4.90;4.00;;;;;;;34.76;32.52;100262.45;103577;1253;137748;-85
2023/06/08 06:24:32;;;;;;;7.50;3.80;;;;;;;35.24;31.69;100263.50;103644;1254;100821;-86
2023/06/08 06:26:59;;;;;;;4.30;3.30;;;;;;;35.86;30.97;100265.59;103297;1254;138432;-86
2023/06/08 06:29:27;;;;;;;4.40;3.50;;;;;;;36.55;29.85;100265.69;103426;1253;100403;-87
2023/06/08 06:31:54;;;;;;;3.30;2.70;;;;;;;37.14;28.84;100261.41;103335;1256;97758;-86
2023/06/08 06:34:22;;;;;;;3.40;3.10;;;;;;;37.69;28.25;100260.83;103367;1254;137616;-86
2023/06/08 06:36:49;;;;;;;4.60;3.10;;;;;;;38.31;27.21;100259.56;103316;1252;100199;-85
2023/06/08 06:39:18;;;;;;;5.60;3.30;;;;;;;38.87;26.86;100256.02;103287;1254;138162;-86
2023/06/08 06:41:46;;;;;;;3.70;3.00;;;;;;;39.42;25.64;100253.95;103410;1254;99348;-85
2023/06/08 06:44:15;;;;;;;3.60;3.10;;;;;;;39.92;25.15;100252.59;103271;1257;97826;-85
2023/06/08 06:46:43;;;;;;;4.70;2.90;;;;;;;40.38;24.45;100253.82;103624;1252;138342;-86
2023/06/08 06:49:10;;;;;;;5.20;2.90;;;;;;;40.75;23.70;100252.64;103459;1256;99047;-86
2023/06/08 06:51:39;;;;;;;4.10;3.20;;;;;;;41.06;22.97;100254.48;103383;1254;137813;-86
2023/06/08 06:54:07;;;;;;;3.50;2.50;;;;;;;41.41;22.52;100250.66;103333;1256;99602;-85
2023/06/08 06:56:35;;;;;;;5.80;2.90;;;;;;;41.66;22.15;100251.31;103389;1256;97756;-85
2023/06/08 06:59:03;;;;;;;4.20;2.90;;;;;;;41.90;22.00;100253.06;103738;1256;137554;-86
2023/06/08 07:01:35;;;;;;;7.30;3.20;;;;;;;42.09;20.81;100259.00;103316;1256;98711;-86
2023/06/08 07:04:05;;;;;;;4.30;2.70;;;;;;;42.00;20.22;100261.29;103278;1256;137740;-85
2023/06/08 07:06:33;;;;;;;3.90;2.70;;;;;;;41.95;20.39;100257.89;103361;1253;100355;-86
2023/06/08 07:09:00;;;;;;;3.80;2.60;;;;;;;42.07;20.51;100258.54;103362;1252;139384;-87
2023/06/08 07:11:29;;;;;;;4.00;2.90;;;;;;;42.36;20.17;100259.30;103376;1256;103314;-86
2023/06/08 07:13:57;;;;;;;5.20;2.90;;;;;;;42.57;19.57;100257.02;103370;1254;99216;-86
2023/06/08 07:16:24;;;;;;;4.20;2.60;;;;;;;42.44;18.71;100255.73;104198;1252;138676;-86
2023/06/08 07:18:54;;;;;;;3.60;2.70;;;;;;;42.20;18.87;100256.28;104855;1252;100394;-86
2023/06/08 07:21:21;;;;;;;4.00;2.70;;;;;;;42.15;19.11;100257.60;103353;1254;137123;-86
2023/06/08 07:23:54;;;;;;;3.50;2.80;;;;;;;42.25;19.00;100257.02;103351;1254;102709;-87
2023/06/08 07:26:43;;;;;;;3.40;2.60;;;;;;;42.48;19.10;100255.61;103421;1256;98872;-86
2023/06/08 07:29:10;;;;;;;4.00;2.40;;;;;;;42.76;18.86;100256.05;103421;1256;97782;-86
2023/06/08 07:31:39;;;;;;;6.00;2.50;;;;;;;42.94;18.36;100253.81;103376;1256;98990;-86
2023/06/08 07:34:06;;;;;;;3.90;2.40;;;;;;;43.04;18.09;100252.58;103227;1256;137762;-86
2023/06/08 07:36:35;;;;;;;4.10;2.40;;;;;;;43.10;17.90;100247.08;103416;1252;103813;-86
2023/06/08 07:39:03;;;;;;;3.40;2.40;;;;;;;43.12;17.75;100244.20;103496;1253;139615;-86
2023/06/08 07:41:31;;;;;;;4.60;2.40;;;;;;;43.11;17.47;100250.27;103563;1256;97663;-88
2023/06/08 07:44:02;;;;;;;5.20;2.50;;;;;;;43.03;17.62;100248.56;103331;1254;100157;-87
2023/06/08 07:46:30;;;;;;;2.90;2.60;;;;;;;43.07;17.83;100247.45;104268;1252;138261;-87
2023/06/08 07:48:57;;;;;;;7.50;2.50;;;;;;;43.13;17.47;100244.20;104836;1252;103932;-89
2023/06/08 07:51:25;;;;;;;3.70;2.30;;;;;;;43.10;17.28;100244.02;104135;1253;137906;-86
2023/06/08 07:53:52;;;;;;;3.80;2.40;;;;;;;43.07;16.94;100243.88;103353;1253;97792;-86
2023/06/08 07:56:21;;;;;;;7.10;2.40;;;;;;;42.62;16.86;100243.09;103288;1253;98806;-87
2023/06/08 07:58:49;;;;;;;4.20;2.40;;;;;;;42.28;17.24;100243.45;103268;1254;137861;-86
2023/06/08 08:01:17;;;;;;;6.00;2.40;;;;;;;42.03;17.24;100241.33;103346;1253;111447;-87
2023/06/08 08:03:44;;;;;;;6.00;2.70;;;;;;;41.78;17.54;100242.55;103193;1252;138057;-86
2023/06/08 08:06:13;;;;;;;3.10;2.30;;;;;;;41.54;17.46;100243.46;103427;1253;99283;-88
2023/06/08 08:08:40;;;;;;;4.70;2.30;;;;;;;41.40;17.86;100239.76;103448;1254;97884;-87
2023/06/08 08:11:08;;;;;;;6.60;2.90;;;;;;;41.34;17.71;100242.76;103395;1253;97844;-86
2023/06/08 08:13:35;;;;;;;4.50;2.80;;;;;;;41.18;17.64;100245.28;103381;1253;102214;-87
2023/06/08 08:16:02;;;;;;;6.40;2.50;;;;;;;41.00;17.72;100246.96;103182;1256;137856;-87
2023/06/08 08:18:29;;;;;;;5.50;2.60;;;;;;;40.96;18.31;100245.37;103429;1253;97762;-88
2023/06/08 08:20:57;;;;;;;7.80;2.70;;;;;;;40.79;18.12;100247.68;103209;1253;137975;-89
2023/06/08 08:23:24;;;;;;;5.50;2.20;;;;;;;40.55;18.45;100243.81;103340;1256;98176;-88
2023/06/08 08:25:51;;;;;;;5.00;2.70;;;;;;;40.59;18.59;100242.53;103459;1252;102801;-88
2023/06/08 08:28:19;;;;;;;8.00;2.90;;;;;;;40.67;18.17;100241.67;103288;1253;138389;-88
2023/06/08 08:30:46;;;;;;;7.40;2.80;;;;;;;40.49;17.94;100241.13;103379;1256;97784;-89
2023/06/08 08:33:14;;;;;;;7.10;2.90;;;;;;;40.22;18.20;100237.26;103297;1253;137903;-86
2023/06/08 08:35:44;;;;;;;5.90;2.90;;;;;;;40.05;18.58;100236.16;103391;1253;97893;-89
2023/06/08 08:38:11;;;;;;;3.90;2.60;;;;;;;39.99;18.61;100235.35;103369;1254;102795;-87
2023/06/08 08:40:41;;;;;;;3.60;2.80;;;;;;;40.00;18.86;100231.59;103275;1253;137828;-87
2023/06/08 08:43:17;;;;;;;4.90;2.90;;;;;;;40.15;19.13;100231.28;103397;1254;97866;-86
2023/06/08 08:45:46;;;;;;;4.60;2.50;;;;;;;40.26;18.88;100234.08;103323;1254;137717;-86
2023/06/08 08:48:17;;;;;;;5.70;2.80;;;;;;;40.24;18.60;100230.74;103564;1256;97685;-87
2023/06/08 08:50:49;;;;;;;4.40;2.60;;;;;;;40.02;18.18;100225.08;103574;1253;137111;-86
2023/06/08 08:53:17;;;;;;;4.00;2.90;;;;;;;39.84;18.32;100226.42;103497;1256;99131;-87
2023/06/08 08:55:48;;;;;;;4.40;2.80;;;;;;;39.78;18.71;100230.84;103458;1256;97669;-85
2023/06/08 08:58:18;;;;;;;3.80;2.50;;;;;;;39.67;18.58;100225.78;103254;1253;137832;-86
2023/06/08 09:00:50;;;;;;;7.40;2.70;;;;;;;39.60;19.06;100223.36;103359;1254;97656;-85
2023/06/08 09:03:17;;;;;;;8.50;2.80;;;;;;;39.63;18.88;100225.43;103244;1255;137801;-88
2023/06/08 09:05:45;;;;;;;4.10;3.00;;;;;;;39.32;18.49;100218.40;103260;1253;97865;-86
2023/06/08 09:08:13;;;;;;;6.90;2.80;;;;;;;38.73;18.92;100222.29;103407;1256;98095;-85
2023/06/08 09:10:40;;;;;;;3.70;2.90;;;;;;;38.32;19.51;100217.19;103257;1253;137700;-87
2023/06/08 09:13:08;;;;;;;7.30;2.80;;;;;;;38.28;19.55;100213.52;103371;1253;97780;-86
2023/06/08 09:15:37;;;;;;;8.80;3.30;;;;;;;38.00;19.62;100208.20;103369;1253;136807;-86
2023/06/08 09:18:17;;;;;;;6.90;2.90;;;;;;;37.94;19.99;100207.66;103372;1253;100050;-87
2023/06/08 09:20:45;;;;;;;6.90;3.30;;;;;;;37.74;19.93;100207.48;103381;1254;138050;-89
2023/06/08 09:23:20;;;;;;;5.50;3.30;;;;;;;37.46;20.06;100204.98;103375;1256;100130;-91
2023/06/08 09:25:48;;;;;;;5.30;3.30;;;;;;;37.24;20.43;100203.30;103572;1256;97796;-90
2023/06/08 09:28:25;;;;;;;6.40;3.20;;;;;;;37.05;20.69;100204.14;103430;1253;137730;-88
2023/06/08 09:30:55;;;;;;;5.20;2.90;;;;;;;37.12;21.25;100200.30;103424;1256;99935;-89
2023/06/08 09:33:24;;;;;;;5.70;2.90;;;;;;;37.27;20.80;100200.60;103523;1256;139004;-89
2023/06/08 09:36:07;;;;;;;4.30;2.60;;;;;;;37.22;20.62;100198.55;103461;1254;100039;-90
2023/06/08 09:38:35;;;;;;;6.50;2.80;;;;;;;37.15;20.93;100193.41;103436;1254;97812;-90
2023/06/08 09:41:22;;;;;;;5.70;2.80;;;;;;;37.07;20.76;100193.95;103333;1253;137531;-88
2023/06/08 09:43:51;;;;;;;4.80;2.90;;;;;;;37.07;20.74;100193.41;103426;1254;100268;-88
2023/06/08 09:49:23;;;;;;;4.30;2.70;;;;;;;37.21;20.86;100194.92;100168;1292;635860;-89
2023/06/08 09:51:51;;;;;;;8.30;3.10;;;;;;;37.39;20.69;100189.56;102677;1266;137051;-88
2023/06/08 09:54:25;;;;;;;2.90;2.60;;;;;;;37.40;20.68;100186.84;102869;1266;99029;-89
2023/06/08 09:56:57;;;;;;;5.80;2.70;;;;;;;37.26;20.39;100186.73;102859;1266;137248;-90
2023/06/08 09:59:34;;;;;;;4.40;2.80;;;;;;;37.14;20.79;100184.30;102837;1263;98465;-90
2023/06/08 10:02:15;;;;;;;4.70;2.80;;;;;;;37.14;20.66;100182.46;102689;1265;122964;-89
2023/06/08 10:04:46;;;;;;;7.70;2.80;;;;;;;37.07;20.60;100182.34;102925;1263;137656;-88
2023/06/08 10:07:19;;;;;;;7.60;2.50;;;;;;;36.96;20.64;100180.29;102953;1262;99034;-90
2023/06/08 10:09:49;;;;;;;6.60;2.70;;;;;;;36.79;20.74;100178.88;102845;1260;136927;-88
2023/06/08 10:12:18;;;;;;;5.20;2.60;;;;;;;36.71;20.72;100177.84;102990;1260;99861;-90
2023/06/08 10:14:45;;;;;;;5.00;2.40;;;;;;;36.56;20.68;100177.35;102883;1262;137045;-89
2023/06/08 10:17:15;;;;;;;6.80;2.60;;;;;;;36.50;20.95;100172.42;103010;1264;95092;-90
2023/06/08 10:19:43;;;;;;;5.40;2.60;;;;;;;36.55;21.23;100171.40;103010;1261;99034;-91
2023/06/08 10:22:11;;;;;;;4.30;2.70;;;;;;;36.61;21.15;100171.14;102935;1263;136875;-91
2023/06/08 10:24:39;;;;;;;5.40;2.80;;;;;;;36.54;20.92;100166.58;103042;1262;100006;-89
2023/06/08 10:27:32;;;;;;;4.60;2.90;;;;;;;36.38;21.03;100163.98;102952;1263;137321;-90
2023/06/08 10:30:03;;;;;;;4.20;2.90;;;;;;;36.05;20.29;100169.65;103055;1265;95209;-89
2023/06/08 10:32:36;;;;;;;9.80;2.70;;;;;;;35.37;20.55;100165.54;103161;1262;100294;-89
2023/06/08 10:35:07;;;;;;;4.80;3.30;;;;;;;34.79;21.15;100160.38;103099;1262;95083;-89
2023/06/08 10:37:38;;;;;;;9.30;3.20;;;;;;;34.39;21.99;100162.54;103142;1261;101042;-88
2023/06/08 10:40:12;;;;;;;7.50;3.00;;;;;;;34.22;22.38;100157.95;102974;1261;136790;-87
2023/06/08 10:42:50;;;;;;;7.20;3.00;;;;;;;34.02;22.64;100156.66;103224;1260;95096;-89
2023/06/08 10:45:30;;;;;;;5.90;3.20;;;;;;;33.90;22.99;100156.45;103312;1259;137084;-88
2023/06/08 10:48:04;;;;;;;5.30;2.80;;;;;;;33.88;23.11;100155.77;103395;1257;95095;-85
2023/06/08 10:50:37;;;;;;;7.80;3.00;;;;;;;33.78;22.56;100159.80;103429;1257;108809;-89
2023/06/08 10:53:05;;;;;;;5.40;2.70;;;;;;;33.27;22.64;100160.17;103460;1259;97786;-90
2023/06/08 10:55:32;;;;;;;5.20;2.90;;;;;;;32.68;22.96;100155.65;103700;1257;94968;-90
2023/06/08 10:58:16;;;;;;;4.40;2.60;;;;;;;32.37;23.65;100152.35;103694;1255;135783;-88
2023/06/08 11:00:46;;;;;;;7.20;3.10;;;;;;;32.10;24.18;100148.97;103907;1257;95639;-88
2023/06/08 11:03:17;;;;;;;5.90;3.30;;;;;;;32.07;24.75;100149.86;103755;1259;135988;-86
2023/06/08 11:05:49;;;;;;;4.00;2.70;;;;;;;31.89;24.64;100155.34;103807;1254;107562;-89
2023/06/08 11:08:18;;;;;;;3.30;3.00;;;;;;;31.62;24.94;100153.11;104066;1253;95147;-88
2023/06/08 11:10:51;;;;;;;10.10;3.00;;;;;;;31.49;24.79;100143.86;104174;1253;137574;-89
2023/06/08 11:13:19;;;;;;;6.30;3.40;;;;;;;31.32;25.30;100145.86;103747;1251;95189;-88
2023/06/08 11:15:47;;;;;;;3.40;2.90;;;;;;;31.25;25.66;100143.78;103597;1252;137589;-89
2023/06/08 11:18:19;;;;;;;7.40;3.30;;;;;;;31.30;25.52;100143.73;103695;1254;107094;-89
2023/06/08 11:20:47;;;;;;;5.90;3.00;;;;;;;31.03;25.22;100144.91;103576;1257;137236;-89